Time;durP1;ratioP1;P1;durP2;ratioP2;P2;SDS_P1;SDS_P2;PMS_P1;PMS_P2;Temp;Humidity;BMP_temperature;BMP_pressure;BME280_temperature;BME280_humidity;BME280_pressure;Samples;Min_cycle;Max_cycle;Signal;HPM_P1;HPM_P2
2022/09/06 00:01:23;;;;;;;;;;;17.50;99.90;;;;;;5010666;28;1114553;-65
2022/09/06 00:03:50;;;;;;;;;;;17.50;99.90;;;;;;5055716;28;19939;-65
2022/09/06 00:06:17;;;;;;;;;;;17.50;99.90;;;;;;5085453;28;19920;-65
2022/09/06 00:08:44;;;;;;;;;;;17.50;99.90;;;;;;5038794;28;19928;-65
2022/09/06 00:11:11;;;;;;;;;;;17.40;99.90;;;;;;5056975;28;19920;-65
2022/09/06 00:13:38;;;;;;;;;;;17.40;99.90;;;;;;5074965;28;19939;-65
2022/09/06 00:16:05;;;;;;;;;;;17.40;99.90;;;;;;5066535;28;19943;-65
2022/09/06 00:18:32;;;;;;;;;;;17.40;99.90;;;;;;5057072;28;19924;-65
2022/09/06 00:20:59;;;;;;;;;;;17.30;99.90;;;;;;5025908;28;19920;-66
2022/09/06 00:23:26;;;;;;;;;;;17.30;99.90;;;;;;5040585;28;19921;-65
2022/09/06 00:26:00;;;;;;;;;;;17.30;99.90;;;;;;5070365;28;19970;-65
2022/09/06 00:28:28;;;;;;;;;;;17.30;99.90;;;;;;5037889;28;19922;-65
2022/09/06 00:30:54;;;;;;;;;;;17.20;99.90;;;;;;5054962;28;19944;-65
2022/09/06 00:33:21;;;;;;;;;;;17.20;99.90;;;;;;5032320;28;19924;-65
2022/09/06 00:35:48;;;;;;;;;;;17.20;99.90;;;;;;5071004;28;19928;-65
2022/09/06 00:38:15;;;;;;;;;;;17.20;99.90;;;;;;5068934;28;19921;-65
2022/09/06 00:40:42;;;;;;;;;;;17.10;99.90;;;;;;5074876;28;20306;-66
2022/09/06 00:43:09;;;;;;;;;;;17.10;99.90;;;;;;5073471;28;19920;-66
2022/09/06 00:45:35;;;;;;;;;;;17.10;99.90;;;;;;5053353;28;19920;-65
2022/09/06 00:48:02;;;;;;;;;;;17.10;99.90;;;;;;5053714;28;19932;-66
2022/09/06 00:50:29;;;;;;;;;;;17.10;99.90;;;;;;5061088;28;19920;-66
2022/09/06 00:52:56;;;;;;;;;;;17.00;99.90;;;;;;5056669;28;19921;-66
2022/09/06 00:55:24;;;;;;;;;;;17.00;99.90;;;;;;5056488;28;19924;-65
2022/09/06 00:57:51;;;;;;;;;;;17.00;99.90;;;;;;5054819;28;20240;-66
2022/09/06 01:00:18;;;;;;;;;;;17.00;99.90;;;;;;5034737;28;19932;-66
2022/09/06 01:02:45;;;;;;;;;;;16.90;99.90;;;;;;5053390;28;20422;-66
2022/09/06 01:05:12;;;;;;;;;;;16.90;99.90;;;;;;5052603;28;19920;-66
2022/09/06 01:07:46;;;;;;;;;;;16.90;99.90;;;;;;5054334;28;19970;-66
2022/09/06 01:10:16;;;;;;;;;;;16.90;99.90;;;;;;5052688;28;19932;-65
2022/09/06 01:12:48;;;;;;;;;;;16.90;99.90;;;;;;5060691;28;20397;-66
2022/09/06 01:15:21;;;;;;;;;;;16.90;99.90;;;;;;5058246;28;19920;-65
2022/09/06 01:17:48;;;;;;;;;;;16.80;99.90;;;;;;5061982;28;19920;-66
2022/09/06 01:20:20;;;;;;;;;;;16.80;99.90;;;;;;5047149;28;20388;-66
2022/09/06 01:23:03;;;;;;;;;;;16.80;99.90;;;;;;5055961;28;19936;-66
2022/09/06 01:25:30;;;;;;;;;;;16.80;99.90;;;;;;5051911;28;19931;-65
2022/09/06 01:28:15;;;;;;;;;;;16.80;99.90;;;;;;5055212;28;19924;-65
2022/09/06 01:31:01;;;;;;;;;;;16.70;99.90;;;;;;5055693;28;20303;-65
2022/09/06 01:33:31;;;;;;;;;;;16.70;99.90;;;;;;5056608;28;19928;-65
2022/09/06 01:36:02;;;;;;;;;;;16.70;99.90;;;;;;5070166;28;19920;-65
2022/09/06 01:38:28;;;;;;;;;;;16.70;99.90;;;;;;5048938;28;19921;-65
2022/09/06 01:40:55;;;;;;;;;;;16.70;99.90;;;;;;5047658;28;19974;-65
2022/09/06 01:43:23;;;;;;;;;;;16.70;99.90;;;;;;5053519;28;19920;-65
2022/09/06 01:46:09;;;;;;;;;;;16.60;99.90;;;;;;5054409;28;19924;-65
2022/09/06 01:48:45;;;;;;;;;;;16.60;99.90;;;;;;5051643;28;19924;-66
2022/09/06 01:51:12;;;;;;;;;;;16.60;99.90;;;;;;5049450;28;19921;-66
2022/09/06 01:53:45;;;;;;;;;;;16.60;99.90;;;;;;5051679;28;19920;-66
2022/09/06 01:56:30;;;;;;;;;;;16.50;99.90;;;;;;5069020;28;19926;-66
2022/09/06 01:59:03;;;;;;;;;;;16.60;99.90;;;;;;5073076;28;19927;-65
2022/09/06 02:01:35;;;;;;;;;;;16.50;99.90;;;;;;5071691;28;19920;-65
2022/09/06 02:04:08;;;;;;;;;;;16.60;99.90;;;;;;5060436;28;20291;-66
2022/09/06 02:06:39;;;;;;;;;;;16.60;99.90;;;;;;5070154;28;19921;-65
2022/09/06 02:09:07;;;;;;;;;;;16.50;99.90;;;;;;5052390;28;19924;-66
2022/09/06 02:11:37;;;;;;;;;;;16.50;99.90;;;;;;5051655;28;19928;-65
2022/09/06 02:14:05;;;;;;;;;;;16.50;99.90;;;;;;5052866;28;20027;-65
2022/09/06 02:16:32;;;;;;;;;;;16.50;99.90;;;;;;5068876;28;19931;-65
2022/09/06 02:19:04;;;;;;;;;;;16.50;99.90;;;;;;5038288;28;19920;-65
2022/09/06 02:21:32;;;;;;;;;;;16.50;99.90;;;;;;5056462;28;19935;-69
2022/09/06 02:23:59;;;;;;;;;;;16.50;99.90;;;;;;5053914;28;19927;-65
2022/09/06 02:26:27;;;;;;;;;;;16.50;99.90;;;;;;5066480;28;19942;-65
2022/09/06 02:28:54;;;;;;;;;;;16.50;99.90;;;;;;5068504;28;19924;-65
2022/09/06 02:31:22;;;;;;;;;;;16.40;99.90;;;;;;5048375;28;20026;-65
2022/09/06 02:33:49;;;;;;;;;;;16.50;99.90;;;;;;5046411;28;19921;-65
2022/09/06 02:36:16;;;;;;;;;;;16.40;99.90;;;;;;5052686;28;20015;-65
2022/09/06 02:38:43;;;;;;;;;;;16.40;99.90;;;;;;5054163;28;19928;-65
2022/09/06 02:41:10;;;;;;;;;;;16.40;99.90;;;;;;5054700;28;19975;-65
2022/09/06 02:43:36;;;;;;;;;;;16.40;99.90;;;;;;5070631;28;19921;-65
2022/09/06 02:46:03;;;;;;;;;;;16.40;99.90;;;;;;5054093;28;19943;-65
2022/09/06 02:48:30;;;;;;;;;;;16.40;99.90;;;;;;5070586;28;19920;-65
2022/09/06 02:51:00;;;;;;;;;;;16.40;99.90;;;;;;5033745;28;19928;-66
2022/09/06 02:53:27;;;;;;;;;;;16.40;99.90;;;;;;5051571;28;19928;-66
2022/09/06 02:55:55;;;;;;;;;;;16.40;99.90;;;;;;5057448;28;19931;-66
2022/09/06 02:58:23;;;;;;;;;;;16.40;99.90;;;;;;5070180;28;19935;-65
2022/09/06 03:00:50;;;;;;;;;;;16.40;99.90;;;;;;5061492;28;19928;-65
2022/09/06 03:03:17;;;;;;;;;;;16.40;99.90;;;;;;5047844;28;20283;-65
2022/09/06 03:05:48;;;;;;;;;;;16.40;99.90;;;;;;5039840;28;19995;-65
2022/09/06 03:08:15;;;;;;;;;;;16.30;99.90;;;;;;5039766;28;19924;-65
2022/09/06 03:10:48;;;;;;;;;;;16.30;99.90;;;;;;5053932;28;19920;-65
2022/09/06 03:13:15;;;;;;;;;;;16.30;99.90;;;;;;5053825;28;19927;-66
2022/09/06 03:15:42;;;;;;;;;;;16.20;99.90;;;;;;5063752;28;20027;-65
2022/09/06 03:18:09;;;;;;;;;;;16.20;99.90;;;;;;5050850;28;20364;-65
2022/09/06 03:20:36;;;;;;;;;;;16.20;99.90;;;;;;5066695;28;20278;-66
2022/09/06 03:23:03;;;;;;;;;;;16.20;99.90;;;;;;5033111;28;19921;-66
2022/09/06 03:25:29;;;;;;;;;;;16.20;99.90;;;;;;5062550;28;19921;-66
2022/09/06 03:27:56;;;;;;;;;;;16.20;99.90;;;;;;5053288;28;19935;-66
2022/09/06 03:30:23;;;;;;;;;;;16.20;99.90;;;;;;5052942;28;19928;-66
2022/09/06 03:32:50;;;;;;;;;;;16.20;99.90;;;;;;5066292;28;19974;-66
2022/09/06 03:35:17;;;;;;;;;;;16.10;99.90;;;;;;5053008;28;20280;-66
2022/09/06 03:37:44;;;;;;;;;;;16.10;99.90;;;;;;5034747;28;19943;-66
2022/09/06 03:40:11;;;;;;;;;;;16.10;99.90;;;;;;5053242;28;19944;-66
2022/09/06 03:42:37;;;;;;;;;;;16.10;99.90;;;;;;5054018;28;20015;-65
2022/09/06 03:45:04;;;;;;;;;;;16.10;99.90;;;;;;5060485;28;20319;-65
2022/09/06 03:47:31;;;;;;;;;;;16.10;99.90;;;;;;5053823;28;19921;-65
2022/09/06 03:49:58;;;;;;;;;;;16.00;99.90;;;;;;5057166;28;19927;-66
2022/09/06 03:52:25;;;;;;;;;;;16.00;99.90;;;;;;5053025;28;20368;-65
2022/09/06 03:54:52;;;;;;;;;;;16.00;99.90;;;;;;5057362;28;20007;-66
2022/09/06 03:57:18;;;;;;;;;;;16.00;99.90;;;;;;5070147;28;20280;-65
2022/09/06 03:59:45;;;;;;;;;;;16.00;99.90;;;;;;5055442;28;20023;-65
2022/09/06 04:02:12;;;;;;;;;;;16.00;99.90;;;;;;5073420;28;19931;-65
2022/09/06 04:04:39;;;;;;;;;;;16.00;99.90;;;;;;5067385;28;19921;-65
2022/09/06 04:07:06;;;;;;;;;;;16.00;99.90;;;;;;5057151;28;19936;-65
2022/09/06 04:09:33;;;;;;;;;;;16.00;99.90;;;;;;5066688;28;19927;-65
2022/09/06 04:12:00;;;;;;;;;;;16.00;99.90;;;;;;5071939;28;19927;-65
2022/09/06 04:14:27;;;;;;;;;;;16.00;99.90;;;;;;5071914;28;19920;-65
2022/09/06 04:16:53;;;;;;;;;;;16.00;99.90;;;;;;5056688;28;20275;-65
2022/09/06 04:19:20;;;;;;;;;;;16.00;99.90;;;;;;5046955;28;19970;-65
2022/09/06 04:21:47;;;;;;;;;;;16.00;99.90;;;;;;5070070;28;19935;-65
2022/09/06 04:24:14;;;;;;;;;;;16.00;99.90;;;;;;5052354;28;20383;-65
2022/09/06 04:26:41;;;;;;;;;;;16.00;99.90;;;;;;5057927;28;20312;-65
2022/09/06 04:29:08;;;;;;;;;;;16.10;99.90;;;;;;5055183;28;20023;-65
2022/09/06 04:31:34;;;;;;;;;;;16.00;99.90;;;;;;5041695;28;19921;-65
2022/09/06 04:34:01;;;;;;;;;;;16.10;99.90;;;;;;5047368;28;19921;-65
2022/09/06 04:36:28;;;;;;;;;;;16.10;99.90;;;;;;5071162;28;20430;-65
2022/09/06 04:38:55;;;;;;;;;;;16.10;99.90;;;;;;5053807;28;20365;-65
2022/09/06 04:41:22;;;;;;;;;;;16.10;99.90;;;;;;5055780;28;19928;-65
2022/09/06 04:43:49;;;;;;;;;;;16.10;99.90;;;;;;5056751;28;19921;-65
2022/09/06 04:46:23;;;;;;;;;;;16.20;99.90;;;;;;5060183;28;19920;-65
2022/09/06 04:48:51;;;;;;;;;;;16.20;99.90;;;;;;5056387;28;19928;-65
2022/09/06 04:51:18;;;;;;;;;;;16.20;99.90;;;;;;5074148;28;20340;-65
2022/09/06 04:53:44;;;;;;;;;;;16.20;99.90;;;;;;5073781;28;19932;-66
2022/09/06 04:56:29;;;;;;;;;;;16.20;99.90;;;;;;5050425;28;20488;-66
2022/09/06 04:58:56;;;;;;;;;;;16.20;99.90;;;;;;5054866;28;19930;-65
2022/09/06 05:01:25;;;;;;;;;;;16.20;99.90;;;;;;5043276;28;19920;-65
2022/09/06 05:03:52;;;;;;;;;;;16.20;99.90;;;;;;5050050;28;19932;-66
2022/09/06 05:06:22;;;;;;;;;;;16.20;99.90;;;;;;5071993;28;19927;-66
2022/09/06 05:08:49;;;;;;;;;;;16.20;99.90;;;;;;5055232;28;19978;-65
2022/09/06 05:11:16;;;;;;;;;;;16.20;99.90;;;;;;5039096;28;19935;-65
2022/09/06 05:13:44;;;;;;;;;;;16.20;99.90;;;;;;5072376;28;19921;-65
2022/09/06 05:16:10;;;;;;;;;;;16.20;99.90;;;;;;5055653;28;19929;-65
2022/09/06 05:18:37;;;;;;;;;;;16.20;99.90;;;;;;5055240;28;19961;-66
2022/09/06 05:21:04;;;;;;;;;;;16.20;99.90;;;;;;5065409;28;19921;-65
2022/09/06 05:23:31;;;;;;;;;;;16.10;99.90;;;;;;5064098;28;19927;-65
2022/09/06 05:25:58;;;;;;;;;;;16.10;99.90;;;;;;5055713;28;20325;-65
2022/09/06 05:28:25;;;;;;;;;;;16.10;99.90;;;;;;5052213;28;20356;-65
2022/09/06 05:30:52;;;;;;;;;;;16.20;99.90;;;;;;5050333;28;19920;-65
2022/09/06 05:33:19;;;;;;;;;;;16.20;99.90;;;;;;5054491;28;19924;-65
2022/09/06 05:35:47;;;;;;;;;;;16.20;99.90;;;;;;5071143;28;19931;-66
2022/09/06 05:38:14;;;;;;;;;;;16.20;99.90;;;;;;5069874;28;19925;-66
2022/09/06 05:40:40;;;;;;;;;;;16.20;99.90;;;;;;5060391;28;19922;-65
2022/09/06 05:43:07;;;;;;;;;;;16.20;99.90;;;;;;5052108;28;19928;-66
2022/09/06 05:45:34;;;;;;;;;;;16.20;99.90;;;;;;5071342;28;19920;-66
2022/09/06 05:48:01;;;;;;;;;;;16.20;99.90;;;;;;5053010;28;19928;-65
2022/09/06 05:50:28;;;;;;;;;;;16.20;99.90;;;;;;5051206;28;20372;-66
2022/09/06 05:52:55;;;;;;;;;;;16.30;99.90;;;;;;5069674;28;20295;-66
2022/09/06 05:55:22;;;;;;;;;;;16.30;99.90;;;;;;5036845;28;19920;-66
2022/09/06 05:57:49;;;;;;;;;;;16.30;99.90;;;;;;5052299;28;19935;-65
2022/09/06 06:00:15;;;;;;;;;;;16.30;99.90;;;;;;5066963;28;20277;-66
2022/09/06 06:02:45;;;;;;;;;;;16.30;99.90;;;;;;5060139;28;19921;-65
2022/09/06 06:05:13;;;;;;;;;;;16.40;99.90;;;;;;5054513;28;19920;-65
2022/09/06 06:07:39;;;;;;;;;;;16.50;99.90;;;;;;5053175;28;20364;-65
2022/09/06 06:10:06;;;;;;;;;;;16.50;99.90;;;;;;5057593;28;19927;-65
2022/09/06 06:12:33;;;;;;;;;;;16.60;99.90;;;;;;5053470;28;19935;-65
2022/09/06 06:15:00;;;;;;;;;;;16.70;99.90;;;;;;5048054;28;19940;-64
2022/09/06 06:17:27;;;;;;;;;;;16.80;99.90;;;;;;5054180;28;20003;-64
2022/09/06 06:19:54;;;;;;;;;;;16.90;99.90;;;;;;5053221;28;19955;-67
2022/09/06 06:22:21;;;;;;;;;;;17.00;99.90;;;;;;5065386;28;19927;-66
2022/09/06 06:24:47;;;;;;;;;;;17.00;99.90;;;;;;5059219;28;20371;-64
2022/09/06 06:27:14;;;;;;;;;;;17.10;99.90;;;;;;5072691;28;19942;-64
2022/09/06 06:29:41;;;;;;;;;;;17.10;99.90;;;;;;5057939;28;19928;-64
2022/09/06 06:32:08;;;;;;;;;;;17.20;99.90;;;;;;5069288;28;19927;-64
2022/09/06 06:34:35;;;;;;;;;;;17.40;99.90;;;;;;5056304;28;19925;-64
2022/09/06 06:37:01;;;;;;;;;;;17.40;99.90;;;;;;5055225;28;19928;-68
2022/09/06 06:39:28;;;;;;;;;;;17.50;99.90;;;;;;5062177;28;19924;-68
2022/09/06 06:41:55;;;;;;;;;;;17.50;99.90;;;;;;5070193;28;20334;-64
2022/09/06 06:44:22;;;;;;;;;;;17.60;99.90;;;;;;5053998;28;19931;-65
2022/09/06 06:46:49;;;;;;;;;;;17.60;99.90;;;;;;5070278;28;20904;-65
2022/09/06 06:49:15;;;;;;;;;;;17.60;99.90;;;;;;5085519;28;20451;-65
2022/09/06 06:51:42;;;;;;;;;;;17.60;99.90;;;;;;5050795;28;19928;-69
2022/09/06 06:54:09;;;;;;;;;;;17.70;99.90;;;;;;5069477;28;19924;-72
2022/09/06 06:56:36;;;;;;;;;;;17.70;99.90;;;;;;5035871;28;19920;-69
2022/09/06 06:59:04;;;;;;;;;;;17.80;99.90;;;;;;5015656;28;19924;-70
2022/09/06 07:01:31;;;;;;;;;;;17.90;99.90;;;;;;5050760;28;21459;-69
2022/09/06 07:03:58;;;;;;;;;;;17.90;99.90;;;;;;5038106;28;19927;-70
2022/09/06 07:06:26;;;;;;;;;;;18.00;99.90;;;;;;5056527;28;19928;-69
2022/09/06 07:09:14;;;;;;;;;;;18.00;99.90;;;;;;5054570;28;19951;-68
2022/09/06 07:11:41;;;;;;;;;;;18.10;99.90;;;;;;5048180;28;19925;-68
2022/09/06 07:14:07;;;;;;;;;;;18.20;99.90;;;;;;5051718;28;19925;-68
2022/09/06 07:16:34;;;;;;;;;;;18.30;99.90;;;;;;5069294;28;19920;-69
2022/09/06 07:19:02;;;;;;;;;;;18.30;99.90;;;;;;5049555;28;20282;-69
2022/09/06 07:21:29;;;;;;;;;;;18.30;99.90;;;;;;5063257;28;19929;-65
2022/09/06 07:24:04;;;;;;;;;;;18.40;99.90;;;;;;5054883;28;19931;-64
2022/09/06 07:26:32;;;;;;;;;;;18.50;99.90;;;;;;5059061;28;20298;-64
2022/09/06 07:28:59;;;;;;;;;;;18.50;99.90;;;;;;5060533;28;19928;-65
2022/09/06 07:31:27;;;;;;;;;;;18.50;99.90;;;;;;5061932;28;19920;-65
2022/09/06 07:34:13;;;;;;;;;;;18.60;99.90;;;;;;5048224;28;20000;-64
2022/09/06 07:36:40;;;;;;;;;;;18.60;99.90;;;;;;5052929;28;19920;-66
2022/09/06 07:39:07;;;;;;;;;;;18.60;99.90;;;;;;5047710;28;20685;-64
2022/09/06 07:41:34;;;;;;;;;;;18.60;99.90;;;;;;5051563;28;19921;-65
2022/09/06 07:44:01;;;;;;;;;;;18.60;99.90;;;;;;5072065;28;19924;-64
2022/09/06 07:46:27;;;;;;;;;;;18.70;99.90;;;;;;5070853;28;20394;-64
2022/09/06 07:48:54;;;;;;;;;;;18.70;99.90;;;;;;5072362;28;19947;-63
2022/09/06 07:51:21;;;;;;;;;;;18.80;99.90;;;;;;5052494;28;19931;-64
2022/09/06 07:53:52;;;;;;;;;;;19.00;99.90;;;;;;5047115;28;19932;-64
2022/09/06 07:56:38;;;;;;;;;;;19.10;99.90;;;;;;5032192;28;19928;-65
2022/09/06 07:59:05;;;;;;;;;;;19.20;99.90;;;;;;5032136;28;19921;-64
2022/09/06 08:01:38;;;;;;;;;;;19.30;99.90;;;;;;5044202;28;19927;-65
2022/09/06 08:04:06;;;;;;;;;;;19.40;99.90;;;;;;5061112;28;19982;-64
2022/09/06 08:06:34;;;;;;;;;;;19.50;99.90;;;;;;5052135;28;19935;-63
2022/09/06 08:09:20;;;;;;;;;;;19.60;99.90;;;;;;5052106;28;19925;-64
2022/09/06 08:11:49;;;;;;;;;;;19.50;99.90;;;;;;5034812;28;20307;-64
2022/09/06 08:14:16;;;;;;;;;;;19.60;99.90;;;;;;5069761;28;20030;-64
2022/09/06 08:16:43;;;;;;;;;;;19.60;99.90;;;;;;5052399;28;19924;-63
2022/09/06 08:19:11;;;;;;;;;;;19.70;99.90;;;;;;5052080;28;20272;-63
2022/09/06 08:21:38;;;;;;;;;;;19.70;99.90;;;;;;5058914;28;19924;-64
2022/09/06 08:24:05;;;;;;;;;;;19.70;99.90;;;;;;5066080;28;19928;-65
2022/09/06 08:26:33;;;;;;;;;;;19.60;99.90;;;;;;5050963;28;20007;-68
2022/09/06 08:29:00;;;;;;;;;;;19.60;99.90;;;;;;5056842;28;19920;-67
2022/09/06 08:31:28;;;;;;;;;;;19.60;99.90;;;;;;5044052;28;20272;-66
2022/09/06 08:33:55;;;;;;;;;;;19.60;99.90;;;;;;5045184;28;19920;-65
2022/09/06 08:36:22;;;;;;;;;;;19.60;99.90;;;;;;5054532;28;19920;-66
2022/09/06 08:38:49;;;;;;;;;;;19.70;99.90;;;;;;5051688;28;19924;-66
2022/09/06 08:41:15;;;;;;;;;;;19.60;99.90;;;;;;5049176;28;20291;-67
2022/09/06 08:44:05;;;;;;;;;;;19.60;99.90;;;;;;5089880;28;19924;-67
2022/09/06 08:46:52;;;;;;;;;;;19.60;99.90;;;;;;5056815;28;19994;-64
2022/09/06 08:49:19;;;;;;;;;;;19.60;99.90;;;;;;5060655;28;19928;-67
2022/09/06 08:52:00;;;;;;;;;;;19.60;99.90;;;;;;5055500;28;20368;-65
2022/09/06 08:54:52;;;;;;;;;;;19.60;99.90;;;;;;5062812;28;20007;-66
2022/09/06 08:57:22;;;;;;;;;;;19.70;99.90;;;;;;5035762;28;20367;-65
2022/09/06 08:59:49;;;;;;;;;;;19.80;99.90;;;;;;5071329;28;20015;-65
2022/09/06 09:02:19;;;;;;;;;;;19.90;99.90;;;;;;5069044;28;19933;-65
2022/09/06 09:04:57;;;;;;;;;;;20.00;99.90;;;;;;5069493;28;19950;-65
2022/09/06 09:07:36;;;;;;;;;;;20.10;99.90;;;;;;5036000;28;19921;-65
2022/09/06 09:10:05;;;;;;;;;;;20.10;99.90;;;;;;5053743;28;19921;-65
2022/09/06 09:12:32;;;;;;;;;;;20.10;99.90;;;;;;5069976;28;20007;-65
2022/09/06 09:15:04;;;;;;;;;;;20.10;99.90;;;;;;5054270;28;19946;-65
2022/09/06 09:17:31;;;;;;;;;;;20.10;99.90;;;;;;5052316;28;19974;-65
2022/09/06 09:19:58;;;;;;;;;;;20.00;99.90;;;;;;5053352;28;19925;-66
2022/09/06 09:22:25;;;;;;;;;;;19.90;99.90;;;;;;5065235;28;20371;-65
2022/09/06 09:24:52;;;;;;;;;;;19.90;99.90;;;;;;5072884;28;20415;-66
2022/09/06 09:27:19;;;;;;;;;;;19.90;99.90;;;;;;5071177;28;19926;-65
2022/09/06 09:29:52;;;;;;;;;;;20.00;99.90;;;;;;5050028;28;20291;-65
2022/09/06 09:32:40;;;;;;;;;;;20.00;99.90;;;;;;5053000;28;19948;-65
2022/09/06 09:35:15;;;;;;;;;;;20.10;99.90;;;;;;5051798;28;20279;-66
2022/09/06 09:37:42;;;;;;;;;;;20.10;99.90;;;;;;5067680;28;20310;-65
2022/09/06 09:40:26;;;;;;;;;;;20.20;99.90;;;;;;5067741;28;19921;-66
2022/09/06 09:42:53;;;;;;;;;;;20.20;99.90;;;;;;5068392;28;20350;-65
2022/09/06 09:45:21;;;;;;;;;;;20.30;99.90;;;;;;5066381;28;19927;-65
2022/09/06 09:47:48;;;;;;;;;;;20.40;99.90;;;;;;5067737;28;19951;-66
2022/09/06 09:50:21;;;;;;;;;;;20.40;99.90;;;;;;5052623;28;19921;-65
2022/09/06 09:52:47;;;;;;;;;;;20.50;99.90;;;;;;5083886;28;19931;-66
2022/09/06 09:55:14;;;;;;;;;;;20.50;99.90;;;;;;5051067;28;19928;-66
2022/09/06 09:57:42;;;;;;;;;;;20.60;99.90;;;;;;5050840;28;19933;-66
2022/09/06 10:00:12;;;;;;;;;;;20.80;99.90;;;;;;5049135;28;19925;-65
2022/09/06 10:02:39;;;;;;;;;;;20.80;99.90;;;;;;5050832;28;20024;-65
2022/09/06 10:05:08;;;;;;;;;;;20.80;99.90;;;;;;5049268;28;19920;-65
2022/09/06 10:07:40;;;;;;;;;;;20.90;99.90;;;;;;5049979;28;20038;-65
2022/09/06 10:10:15;;;;;;;;;;;20.80;99.90;;;;;;5083241;28;19928;-66
2022/09/06 10:12:41;;;;;;;;;;;20.80;99.90;;;;;;5087762;28;19920;-65
2022/09/06 10:15:09;;;;;;;;;;;20.90;99.90;;;;;;5071085;28;19935;-65
2022/09/06 10:17:37;;;;;;;;;;;21.00;99.90;;;;;;5087563;28;19920;-65
2022/09/06 10:20:08;;;;;;;;;;;20.90;99.90;;;;;;5072830;28;20302;-65
2022/09/06 10:22:37;;;;;;;;;;;20.90;99.90;;;;;;5062510;28;19921;-66
2022/09/06 10:25:16;;;;;;;;;;;20.90;99.90;;;;;;5052116;28;20395;-66
2022/09/06 10:27:52;;;;;;;;;;;20.90;99.90;;;;;;5052189;28;19925;-65
2022/09/06 10:30:40;;;;;;;;;;;20.90;99.90;;;;;;5052479;28;19967;-66
2022/09/06 10:33:09;;;;;;;;;;;21.00;99.90;;;;;;5067000;28;20337;-65
2022/09/06 10:35:36;;;;;;;;;;;21.10;99.90;;;;;;5067398;28;20372;-65
2022/09/06 10:38:09;;;;;;;;;;;21.20;99.90;;;;;;5067320;28;19964;-65
2022/09/06 10:40:38;;;;;;;;;;;21.30;99.90;;;;;;5067348;28;19925;-65
2022/09/06 10:43:07;;;;;;;;;;;21.30;99.90;;;;;;5050712;28;19920;-65
2022/09/06 10:45:34;;;;;;;;;;;21.30;99.90;;;;;;5050534;28;19920;-66
2022/09/06 10:48:01;;;;;;;;;;;21.40;99.90;;;;;;5065897;28;20031;-66
2022/09/06 10:50:39;;;;;;;;;;;21.50;99.90;;;;;;5051843;28;19960;-67
2022/09/06 10:53:08;;;;;;;;;;;21.60;99.90;;;;;;5062035;28;19920;-66
2022/09/06 10:55:35;;;;;;;;;;;21.70;99.90;;;;;;5053448;28;19928;-68
2022/09/06 10:58:03;;;;;;;;;;;21.80;99.90;;;;;;5063551;28;19928;-64
2022/09/06 11:00:46;;;;;;;;;;;21.80;99.90;;;;;;5058391;28;19921;-69
2022/09/06 11:03:21;;;;;;;;;;;21.80;99.90;;;;;;5055491;28;19921;-75
2022/09/06 11:06:09;;;;;;;;;;;21.80;99.90;;;;;;5050343;28;20586;-68
2022/09/06 11:08:42;;;;;;;;;;;21.90;99.90;;;;;;5038378;28;19920;-74
2022/09/06 11:11:10;;;;;;;;;;;21.90;99.90;;;;;;5053296;28;19920;-70
2022/09/06 11:13:37;;;;;;;;;;;21.90;99.90;;;;;;5067179;28;19920;-69
2022/09/06 11:16:08;;;;;;;;;;;22.00;99.90;;;;;;5055820;28;19927;-72
2022/09/06 11:18:49;;;;;;;;;;;22.00;99.90;;;;;;5066018;28;20394;-73
2022/09/06 11:21:29;;;;;;;;;;;22.10;99.90;;;;;;5071427;28;19928;-68
2022/09/06 11:24:08;;;;;;;;;;;22.10;99.90;;;;;;5037168;28;19928;-70
2022/09/06 11:26:39;;;;;;;;;;;22.10;99.90;;;;;;5045452;28;19928;-68
2022/09/06 11:29:07;;;;;;;;;;;22.20;99.90;;;;;;5055668;28;19966;-73
2022/09/06 11:31:49;;;;;;;;;;;22.20;99.90;;;;;;5037521;28;19928;-68
2022/09/06 11:34:36;;;;;;;;;;;22.20;99.90;;;;;;5069584;28;19920;-69
2022/09/06 11:37:05;;;;;;;;;;;22.20;99.90;;;;;;5081069;28;20406;-70
2022/09/06 11:39:36;;;;;;;;;;;22.20;99.90;;;;;;5057356;28;19920;-70
2022/09/06 11:42:42;;;;;;;;;;;22.20;99.90;;;;;;5056495;28;19928;-69
2022/09/06 11:45:21;;;;;;;;;;;22.30;99.90;;;;;;5071826;28;19924;-72
2022/09/06 11:47:48;;;;;;;;;;;22.40;99.90;;;;;;5051075;28;19920;-69
2022/09/06 11:50:27;;;;;;;;;;;22.40;99.90;;;;;;5055828;28;20206;-77
2022/09/06 11:53:01;;;;;;;;;;;22.40;99.90;;;;;;5062499;28;19921;-76
2022/09/06 11:55:47;;;;;;;;;;;22.40;99.90;;;;;;5053466;28;19920;-75
2022/09/06 11:58:14;;;;;;;;;;;22.40;99.90;;;;;;5070882;28;19926;-75
2022/09/06 12:00:41;;;;;;;;;;;22.40;99.90;;;;;;5046783;28;19921;-72
2022/09/06 12:03:08;;;;;;;;;;;22.40;99.90;;;;;;5056031;28;19920;-74
2022/09/06 12:06:28;;;;;;;;;;;22.50;99.90;;;;;;5044040;28;19925;-64
2022/09/06 12:08:55;;;;;;;;;;;22.50;99.90;;;;;;5018995;28;19932;-60
2022/09/06 12:11:31;;;;;;;;;;;22.60;99.90;;;;;;5053154;28;19927;-61
2022/09/06 12:13:59;;;;;;;;;;;22.70;99.90;;;;;;5056351;28;19927;-60
2022/09/06 12:16:45;;;;;;;;;;;22.90;99.90;;;;;;5074178;28;19958;-74
2022/09/06 12:19:31;;;;;;;;;;;23.10;99.90;;;;;;5073177;28;19924;-64
2022/09/06 12:21:58;;;;;;;;;;;23.20;99.90;;;;;;5063943;28;19927;-66
2022/09/06 12:24:34;;;;;;;;;;;23.40;99.90;;;;;;5052913;28;19969;-68
2022/09/06 12:27:25;;;;;;;;;;;23.50;99.90;;;;;;5067546;28;20367;-69
2022/09/06 12:29:59;;;;;;;;;;;23.40;99.90;;;;;;5048747;28;19960;-66
2022/09/06 12:32:33;;;;;;;;;;;23.40;99.90;;;;;;5060948;28;19932;-68
2022/09/06 12:35:04;;;;;;;;;;;23.30;99.90;;;;;;5069105;28;20370;-66
2022/09/06 12:37:58;;;;;;;;;;;23.20;99.90;;;;;;5059803;28;19939;-66
2022/09/06 12:40:26;;;;;;;;;;;23.20;99.90;;;;;;5060654;28;20345;-69
2022/09/06 12:42:53;;;;;;;;;;;23.20;99.90;;;;;;5053451;28;19927;-64
2022/09/06 12:45:20;;;;;;;;;;;23.40;99.90;;;;;;5056619;28;19924;-64
2022/09/06 12:48:09;;;;;;;;;;;23.40;99.90;;;;;;5073224;28;19920;-65
2022/09/06 12:50:36;;;;;;;;;;;23.50;99.90;;;;;;5074083;28;19927;-65
2022/09/06 12:53:03;;;;;;;;;;;23.50;99.90;;;;;;5056053;28;19920;-64
2022/09/06 12:55:33;;;;;;;;;;;23.50;99.90;;;;;;5055390;28;19935;-64
2022/09/06 12:58:01;;;;;;;;;;;23.40;99.90;;;;;;5073730;28;19931;-65
2022/09/06 13:00:34;;;;;;;;;;;23.50;99.90;;;;;;5081976;28;19943;-64
2022/09/06 13:03:13;;;;;;;;;;;23.50;99.90;;;;;;5054373;28;19921;-68
2022/09/06 13:05:40;;;;;;;;;;;23.60;99.90;;;;;;5073668;28;19920;-68
2022/09/06 13:10:24;;;;;;;6.43;2.20;;;23.60;99.90;;;;;;5147075;27;20107;-65
2022/09/06 13:12:51;;;;;;;6.82;2.50;;;23.90;99.90;;;;;;5107453;28;20069;-64
2022/09/06 13:15:24;;;;;;;7.10;2.75;;;24.00;99.90;;;;;;5103889;28;20051;-67
2022/09/06 13:17:52;;;;;;;7.93;2.85;;;23.90;99.90;;;;;;5127467;28;20044;-71
2022/09/06 13:20:28;;;;;;;9.53;2.57;;;23.90;99.90;;;;;;5124232;28;20390;-69
2022/09/06 13:23:06;;;;;;;9.70;2.22;;;24.00;99.90;;;;;;5115209;28;20051;-69
2022/09/06 13:25:33;;;;;;;8.07;2.50;;;24.00;99.90;;;;;;5111143;28;20482;-69
2022/09/06 13:28:01;;;;;;;7.45;1.92;;;24.00;99.90;;;;;;5091168;28;20055;-68
2022/09/06 13:30:40;;;;;;;6.63;2.10;;;24.20;99.90;;;;;;5114880;28;20438;-70
2022/09/06 13:33:21;;;;;;;6.28;2.42;;;24.20;99.90;;;;;;5119253;28;20124;-71
2022/09/06 13:35:50;;;;;;;8.30;2.00;;;24.10;99.90;;;;;;5112756;28;20040;-71
2022/09/06 13:38:38;;;;;;;7.80;2.17;;;24.10;99.90;;;;;;5097725;28;20453;-70
2022/09/06 13:41:06;;;;;;;8.05;2.47;;;24.20;99.90;;;;;;5103443;28;20296;-71
2022/09/06 13:43:43;;;;;;;10.57;2.53;;;24.10;99.90;;;;;;5122366;28;20039;-68
2022/09/06 13:46:10;;;;;;;;;;;24.00;99.90;;;;;;5122980;28;20043;-70
2022/09/06 13:48:42;;;;;;;7.03;2.63;;;23.90;99.90;;;;;;5122297;28;19919;-68
2022/09/06 13:51:10;;;;;;;8.40;2.28;;;23.60;99.90;;;;;;5117110;28;20476;-67
2022/09/06 13:53:37;;;;;;;6.53;2.00;;;23.50;99.90;;;;;;5106807;28;20487;-70
2022/09/06 13:56:07;;;;;;;7.95;2.92;;;23.40;99.90;;;;;;5110764;28;20047;-71
2022/09/06 13:58:35;;;;;;;7.15;2.88;;;23.50;99.90;;;;;;5127660;28;20055;-69
2022/09/06 14:01:02;;;;;;;5.72;1.80;;;23.50;99.90;;;;;;5090216;28;20559;-68
2022/09/06 14:03:30;;;;;;;11.63;3.00;;;23.50;99.90;;;;;;5094767;28;20157;-69
2022/09/06 14:05:59;;;;;;;9.00;2.63;;;23.50;99.90;;;;;;5091659;28;20072;-70
2022/09/06 14:08:26;;;;;;;5.03;2.10;;;23.40;99.90;;;;;;5107961;28;20159;-70
2022/09/06 14:11:13;;;;;;;7.47;2.15;;;23.40;99.90;;;;;;5104450;28;20050;-70
2022/09/06 14:13:40;;;;;;;8.43;2.92;;;23.50;99.90;;;;;;5120393;28;20055;-75
2022/09/06 14:16:07;;;;;;;8.63;2.38;;;23.50;99.90;;;;;;5126681;28;20047;-70
2022/09/06 14:18:35;;;;;;;5.30;2.65;;;23.40;99.90;;;;;;5125091;28;20421;-74
2022/09/06 14:21:04;;;;;;;9.80;3.10;;;23.30;99.90;;;;;;5111825;28;20043;-72
2022/09/06 14:23:31;;;;;;;9.70;3.17;;;23.20;99.90;;;;;;5109097;28;20143;-72
2022/09/06 14:25:59;;;;;;;12.07;2.28;;;23.20;99.90;;;;;;5095706;28;20062;-75
2022/09/06 14:28:26;;;;;;;6.82;2.00;;;23.30;99.90;;;;;;5095041;28;20058;-72